Time;durP1;ratioP1;P1;durP2;ratioP2;P2;SDS_P1;SDS_P2;PMS_P1;PMS_P2;Temp;Humidity;BMP_temperature;BMP_pressure;BME280_temperature;BME280_humidity;BME280_pressure;Samples;Min_cycle;Max_cycle;Signal;HPM_P1;HPM_P2
2022/01/03 00:01:08;;;;;;;7.30;1.50;;;9.80;85.10;;;;;;4990731;28;20038;-71
2022/01/03 00:03:35;;;;;;;8.32;2.25;;;9.80;85.40;;;;;;4989605;28;20879;-71
2022/01/03 00:06:05;;;;;;;2.95;1.30;;;9.90;85.60;;;;;;4991110;28;20052;-70
2022/01/03 00:08:32;;;;;;;;;;;9.90;85.10;;;;;;4990973;28;20883;-71
2022/01/03 00:10:59;;;;;;;4.38;2.00;;;10.00;85.60;;;;;;4990742;28;19971;-71
2022/01/03 00:13:26;;;;;;;7.60;1.80;;;10.10;84.50;;;;;;4989076;28;20573;-71
2022/01/03 00:15:55;;;;;;;2.88;1.77;;;10.10;84.20;;;;;;4991209;28;20111;-71
2022/01/03 00:18:23;;;;;;;5.45;1.70;;;10.20;83.80;;;;;;4990581;28;20034;-71
2022/01/03 00:20:57;;;;;;;7.00;1.90;;;10.20;84.20;;;;;;4990451;28;20139;-71
2022/01/03 00:23:27;;;;;;;3.17;1.48;;;10.20;84.80;;;;;;4994697;28;20045;-71
2022/01/03 00:26:02;;;;;;;6.70;1.80;;;10.30;84.90;;;;;;4994239;28;20038;-71
2022/01/03 00:28:32;;;;;;;5.53;1.85;;;10.30;84.80;;;;;;4990683;28;20809;-71
2022/01/03 00:31:00;;;;;;;4.25;1.50;;;10.40;85.10;;;;;;4992986;28;20558;-71
2022/01/03 00:33:27;;;;;;;3.33;1.33;;;10.40;85.30;;;;;;4992241;28;20049;-69
2022/01/03 00:35:59;;;;;;;3.88;2.08;;;10.50;85.40;;;;;;4993049;28;20100;-71
2022/01/03 00:38:31;;;;;;;9.05;1.83;;;10.50;85.80;;;;;;4994585;28;20046;-69
2022/01/03 00:40:59;;;;;;;4.30;1.40;;;10.50;85.70;;;;;;4992144;28;20050;-70
2022/01/03 00:43:27;;;;;;;5.32;1.83;;;10.60;86.10;;;;;;4991044;28;20050;-70
2022/01/03 00:45:55;;;;;;;4.93;1.65;;;10.50;86.20;;;;;;4994314;28;20042;-70
2022/01/03 00:48:23;;;;;;;9.40;2.28;;;10.60;86.30;;;;;;4994221;28;20074;-71
2022/01/03 00:50:50;;;;;;;10.88;1.63;;;10.50;86.40;;;;;;4992449;28;20181;-71
2022/01/03 00:53:19;;;;;;;3.10;1.55;;;10.50;86.50;;;;;;5012495;28;20045;-71
2022/01/03 00:56:02;;;;;;;2.03;1.30;;;10.50;86.80;;;;;;5008061;28;20113;-71
2022/01/03 00:58:37;;;;;;;5.05;1.52;;;10.50;87.40;;;;;;4991208;28;20952;-71
2022/01/03 01:01:06;;;;;;;5.18;1.65;;;10.50;87.60;;;;;;4993222;28;20046;-71
2022/01/03 01:03:37;;;;;;;2.72;1.52;;;10.50;87.70;;;;;;5007540;28;20052;-69
2022/01/03 01:06:07;;;;;;;6.18;1.73;;;10.50;87.90;;;;;;4992675;28;20475;-69
2022/01/03 01:08:35;;;;;;;6.88;2.22;;;10.40;88.20;;;;;;5008630;28;20042;-69
2022/01/03 01:11:07;;;;;;;13.93;3.47;;;10.40;88.60;;;;;;5007619;28;20670;-70
2022/01/03 01:13:39;;;;;;;6.82;1.98;;;10.30;89.20;;;;;;4991986;28;20062;-69
2022/01/03 01:16:07;;;;;;;4.20;2.45;;;10.20;89.60;;;;;;4991917;28;20165;-70
2022/01/03 01:18:43;;;;;;;1.90;1.52;;;10.20;90.20;;;;;;5004281;28;20056;-70
2022/01/03 01:21:13;;;;;;;15.20;3.83;;;10.10;90.80;;;;;;4971646;28;20053;-69
2022/01/03 01:23:42;;;;;;;5.25;1.55;;;10.00;90.80;;;;;;4971952;28;20484;-71
2022/01/03 01:28:56;;;;;;;5.50;2.10;;;10.10;90.90;;;;;;4970157;28;20065;-70
2022/01/03 01:31:24;;;;;;;;;;;10.10;91.00;;;;;;4971908;28;20464;-70
2022/01/03 01:33:53;;;;;;;;;;;10.10;90.90;;;;;;4973333;28;19926;-69
2022/01/03 01:36:23;;;;;;;4.88;1.60;;;10.10;91.00;;;;;;4973107;28;19925;-70
2022/01/03 01:38:52;;;;;;;4.75;1.20;;;10.10;91.00;;;;;;4973241;28;20492;-70
2022/01/03 01:41:22;;;;;;;3.28;1.60;;;10.10;91.20;;;;;;4971919;28;20057;-69
2022/01/03 01:43:57;;;;;;;4.97;1.70;;;10.10;91.50;;;;;;4969711;28;20039;-71
2022/01/03 01:46:25;;;;;;;3.20;1.30;;;10.00;91.60;;;;;;4972711;28;20058;-69
2022/01/03 01:49:04;;;;;;;3.60;1.52;;;10.00;91.70;;;;;;4969762;28;20054;-71
2022/01/03 01:51:34;;;;;;;6.45;1.70;;;10.00;91.90;;;;;;4973748;28;20073;-70
2022/01/03 01:54:04;;;;;;;3.95;1.85;;;10.00;92.10;;;;;;5017129;28;20049;-70
2022/01/03 01:57:02;;;;;;;3.17;1.55;;;10.00;92.20;;;;;;5010338;28;20131;-70
2022/01/03 01:59:52;;;;;;;4.80;1.88;;;10.00;93.40;;;;;;5025986;28;20049;-70
2022/01/03 02:02:50;;;;;;;4.78;1.63;;;9.90;93.30;;;;;;5010268;28;20136;-70
2022/01/03 02:05:22;;;;;;;4.78;1.70;;;9.90;93.30;;;;;;5003754;28;20049;-70
2022/01/03 02:08:14;;;;;;;4.72;2.10;;;9.90;93.60;;;;;;5010612;28;20049;-70
2022/01/03 02:11:01;;;;;;;5.65;1.67;;;9.90;93.60;;;;;;5026251;28;20060;-69
2022/01/03 02:13:28;;;;;;;6.95;1.95;;;9.90;93.70;;;;;;5009382;28;20045;-70
2022/01/03 02:16:00;;;;;;;5.80;1.90;;;9.90;94.10;;;;;;5011001;28;20517;-70
2022/01/03 02:18:28;;;;;;;6.70;2.25;;;10.00;94.10;;;;;;5008141;28;20362;-70
2022/01/03 02:20:54;;;;;;;8.25;3.72;;;10.00;94.20;;;;;;4991676;28;20046;-70
2022/01/03 02:23:21;;;;;;;;;;;10.00;94.50;;;;;;4991530;28;20421;-70
2022/01/03 02:25:49;;;;;;;2.92;1.40;;;10.00;94.50;;;;;;4990629;28;20024;-70
2022/01/03 02:28:20;;;;;;;2.72;1.50;;;10.00;94.90;;;;;;4989925;28;21118;-70
2022/01/03 02:30:48;;;;;;;6.63;2.30;;;10.00;94.90;;;;;;4989779;28;20049;-70
2022/01/03 02:33:16;;;;;;;4.88;1.58;;;10.00;95.20;;;;;;4991311;28;20047;-70
2022/01/03 02:35:45;;;;;;;5.75;1.63;;;9.90;95.30;;;;;;4991028;28;20072;-69
2022/01/03 02:38:14;;;;;;;3.70;1.35;;;9.90;95.40;;;;;;5006846;28;20057;-70
2022/01/03 02:40:42;;;;;;;13.70;3.08;;;9.90;95.50;;;;;;4991092;28;20120;-71
2022/01/03 02:43:09;;;;;;;4.72;1.65;;;10.00;95.50;;;;;;4990439;28;20042;-70
2022/01/03 02:45:36;;;;;;;10.60;2.15;;;10.00;95.80;;;;;;4991587;28;20041;-70
2022/01/03 02:48:11;;;;;;;6.53;1.33;;;10.00;95.60;;;;;;4990581;28;20137;-70
2022/01/03 02:50:39;;;;;;;4.75;1.98;;;10.00;96.00;;;;;;4990394;28;20046;-70
2022/01/03 02:53:07;;;;;;;3.55;1.00;;;10.10;95.50;;;;;;4996919;28;20126;-70
2022/01/03 02:55:35;;;;;;;5.25;1.95;;;10.10;95.90;;;;;;5005730;28;20107;-70
2022/01/03 02:58:08;;;;;;;7.20;1.60;;;10.00;96.00;;;;;;5006743;28;20107;-70
2022/01/03 03:00:48;;;;;;;3.55;1.42;;;10.00;95.70;;;;;;5004483;28;20053;-70
2022/01/03 03:03:23;;;;;;;9.00;2.47;;;10.10;95.80;;;;;;5005720;28;20108;-70
2022/01/03 03:05:52;;;;;;;6.35;1.70;;;10.10;95.60;;;;;;4989899;28;20117;-71
2022/01/03 03:08:21;;;;;;;3.67;1.88;;;10.10;95.60;;;;;;5006299;28;20057;-70
2022/01/03 03:10:48;;;;;;;4.60;1.52;;;10.10;95.60;;;;;;4990512;28;20104;-70
2022/01/03 03:13:15;;;;;;;7.60;2.60;;;10.10;95.60;;;;;;4990686;28;20050;-70
2022/01/03 03:15:43;;;;;;;5.72;1.73;;;10.10;95.70;;;;;;5005338;28;20052;-70
2022/01/03 03:18:10;;;;;;;;;;;10.10;96.00;;;;;;4989824;28;20053;-70
2022/01/03 03:20:37;;;;;;;5.95;1.77;;;10.00;96.30;;;;;;5005375;28;19957;-70
2022/01/03 03:23:04;;;;;;;6.63;1.73;;;10.00;96.10;;;;;;4989960;28;20347;-70
2022/01/03 03:25:34;;;;;;;2.58;1.38;;;10.00;96.50;;;;;;4972235;28;20084;-70
2022/01/03 03:28:15;;;;;;;5.03;1.65;;;9.90;96.60;;;;;;4986698;28;20798;-70
2022/01/03 03:30:49;;;;;;;3.10;1.52;;;9.90;96.70;;;;;;4968942;28;20050;-70
2022/01/03 03:33:24;;;;;;;4.43;1.42;;;9.90;96.90;;;;;;4970305;28;20089;-71
2022/01/03 03:35:56;;;;;;;5.85;1.75;;;9.90;97.30;;;;;;4970164;28;20150;-69
2022/01/03 03:38:26;;;;;;;5.35;1.52;;;9.90;97.60;;;;;;4969761;28;20597;-70
2022/01/03 03:40:58;;;;;;;5.10;1.45;;;9.80;97.80;;;;;;4968630;28;20041;-70
2022/01/03 03:43:30;;;;;;;6.72;1.50;;;9.80;98.30;;;;;;4969121;28;20038;-71
2022/01/03 03:45:59;;;;;;;9.45;1.95;;;9.70;98.50;;;;;;4970100;28;20039;-70
2022/01/03 03:48:27;;;;;;;4.80;1.35;;;9.70;98.60;;;;;;4970090;28;20057;-70
2022/01/03 03:50:54;;;;;;;9.13;1.30;;;9.70;98.90;;;;;;4985923;28;20125;-70
2022/01/03 03:53:22;;;;;;;4.60;1.50;;;9.70;99.10;;;;;;4994976;28;20042;-70
2022/01/03 03:55:50;;;;;;;11.07;1.42;;;9.70;99.20;;;;;;4993879;28;20046;-70
2022/01/03 03:58:18;;;;;;;3.95;1.33;;;9.80;99.40;;;;;;4993788;28;20046;-70
2022/01/03 04:00:44;;;;;;;;;;;9.80;99.50;;;;;;5008037;28;20141;-69
2022/01/03 04:03:31;;;;;;;5.03;1.40;;;9.80;99.90;;;;;;4991862;28;20044;-70
2022/01/03 04:06:00;;;;;;;5.38;1.40;;;9.80;99.90;;;;;;5009839;28;20768;-70
2022/01/03 04:08:27;;;;;;;6.60;1.48;;;9.90;99.90;;;;;;4992751;28;20120;-70
2022/01/03 04:10:54;;;;;;;;;;;9.90;99.90;;;;;;5009760;28;20714;-70
2022/01/03 04:13:21;;;;;;;3.55;1.60;;;9.90;99.90;;;;;;4993410;28;19925;-70
2022/01/03 04:15:49;;;;;;;7.35;1.83;;;9.90;99.90;;;;;;4991894;28;20049;-70
2022/01/03 04:18:16;;;;;;;4.18;1.45;;;9.90;99.90;;;;;;4994339;28;20119;-70
2022/01/03 04:20:42;;;;;;;;;;;9.90;99.90;;;;;;4993042;28;20034;-70
2022/01/03 04:23:09;;;;;;;8.88;1.60;;;9.90;99.90;;;;;;4991998;28;20040;-70
2022/01/03 04:25:36;;;;;;;;;;;9.90;99.90;;;;;;4992601;28;20057;-70
2022/01/03 04:28:04;;;;;;;7.38;2.85;;;9.90;99.90;;;;;;4993485;28;19925;-70
2022/01/03 04:30:31;;;;;;;8.75;2.35;;;9.90;99.90;;;;;;4990269;28;20630;-70
2022/01/03 04:32:58;;;;;;;4.15;1.40;;;9.90;99.90;;;;;;4992550;28;20045;-70
2022/01/03 04:35:25;;;;;;;6.72;1.80;;;9.90;99.90;;;;;;4993956;28;20057;-70
2022/01/03 04:37:53;;;;;;;9.07;1.80;;;9.90;99.90;;;;;;4993193;28;20049;-69
2022/01/03 04:40:21;;;;;;;8.20;2.47;;;9.90;99.90;;;;;;4992221;28;20041;-70
2022/01/03 04:42:48;;;;;;;4.93;1.98;;;9.90;99.90;;;;;;4992281;28;20321;-70
2022/01/03 04:45:15;;;;;;;9.27;1.60;;;9.90;99.90;;;;;;4974862;28;20127;-70
2022/01/03 04:47:42;;;;;;;;;;;9.80;99.90;;;;;;4993985;28;20045;-70
2022/01/03 04:50:09;;;;;;;7.32;1.95;;;9.90;99.90;;;;;;4993005;28;19925;-70
2022/01/03 04:52:36;;;;;;;3.50;1.25;;;9.80;99.90;;;;;;4994195;28;20135;-70
2022/01/03 04:55:03;;;;;;;6.50;1.48;;;9.80;99.90;;;;;;4995308;28;20555;-70
2022/01/03 04:57:30;;;;;;;6.38;1.27;;;9.80;99.90;;;;;;5008379;28;20060;-70
2022/01/03 04:59:57;;;;;;;7.45;2.10;;;9.70;99.90;;;;;;4991285;28;20061;-71
2022/01/03 05:02:24;;;;;;;4.28;1.40;;;9.70;99.90;;;;;;4991835;28;20520;-71
2022/01/03 05:04:51;;;;;;;7.57;1.65;;;9.70;99.90;;;;;;5007966;28;20052;-71
2022/01/03 05:07:19;;;;;;;3.90;1.48;;;9.70;99.90;;;;;;5008052;28;20050;-70
2022/01/03 05:09:45;;;;;;;;;;;9.70;99.90;;;;;;5007749;28;20044;-70
2022/01/03 05:12:16;;;;;;;4.25;1.90;;;9.70;99.90;;;;;;5008879;28;19936;-71
2022/01/03 05:14:44;;;;;;;3.50;1.27;;;9.70;99.90;;;;;;4990083;28;20962;-70
2022/01/03 05:17:11;;;;;;;4.80;1.42;;;9.70;99.90;;;;;;4991780;28;20159;-70
2022/01/03 05:19:38;;;;;;;;;;;9.70;99.90;;;;;;4993484;28;20736;-70
2022/01/03 05:22:05;;;;;;;4.70;2.20;;;9.60;99.90;;;;;;4991700;28;19929;-71
2022/01/03 05:24:34;;;;;;;6.68;1.58;;;9.70;99.90;;;;;;4990525;28;20058;-69
2022/01/03 05:27:03;;;;;;;6.93;1.40;;;9.60;99.90;;;;;;4991528;28;20587;-71
2022/01/03 05:29:30;;;;;;;6.65;1.73;;;9.60;99.90;;;;;;4989399;28;20061;-71
2022/01/03 05:31:57;;;;;;;;;;;9.60;99.90;;;;;;4991290;28;20050;-71
2022/01/03 05:34:24;;;;;;;6.93;1.77;;;9.60;99.90;;;;;;5008135;28;19929;-71
2022/01/03 05:36:52;;;;;;;11.07;2.80;;;9.60;99.90;;;;;;4991478;28;20156;-71
2022/01/03 05:39:20;;;;;;;5.50;1.83;;;9.60;99.90;;;;;;4990491;28;20050;-71
2022/01/03 05:41:46;;;;;;;9.32;1.52;;;9.60;99.90;;;;;;4993071;28;20800;-70
2022/01/03 05:44:14;;;;;;;13.50;2.00;;;9.60;99.90;;;;;;4989668;28;20495;-68
2022/01/03 05:46:40;;;;;;;;;;;9.60;99.90;;;;;;4990801;28;20137;-69
2022/01/03 05:49:08;;;;;;;11.70;1.50;;;9.60;99.90;;;;;;5007699;28;19925;-74
2022/01/03 05:51:35;;;;;;;11.65;2.00;;;9.60;99.90;;;;;;4988501;28;20052;-70
2022/01/03 05:54:02;;;;;;;6.80;1.45;;;9.60;99.90;;;;;;4997645;28;20042;-69
2022/01/03 05:56:29;;;;;;;4.13;1.52;;;9.60;99.90;;;;;;5007569;28;20129;-70
2022/01/03 05:58:56;;;;;;;;;;;9.60;99.90;;;;;;4992186;28;20089;-71
2022/01/03 06:01:24;;;;;;;6.25;1.52;;;9.70;99.90;;;;;;4989527;28;19925;-72
2022/01/03 06:04:00;;;;;;;5.75;1.95;;;9.70;99.90;;;;;;4992402;28;20041;-69
2022/01/03 06:06:53;;;;;;;6.03;1.73;;;9.60;99.90;;;;;;5007537;28;20050;-61
2022/01/03 06:09:23;;;;;;;6.78;1.30;;;9.60;99.90;;;;;;4991730;28;20044;-56
2022/01/03 06:11:53;;;;;;;5.57;1.90;;;9.60;99.90;;;;;;4991009;28;20081;-57
2022/01/03 06:14:22;;;;;;;9.32;1.83;;;9.60;99.90;;;;;;4989300;28;20099;-58
2022/01/03 06:16:49;;;;;;;5.88;1.52;;;9.60;99.90;;;;;;4997249;28;20045;-58
2022/01/03 06:19:17;;;;;;;10.32;2.30;;;9.60;99.90;;;;;;5001874;28;20647;-57
2022/01/03 06:21:45;;;;;;;9.02;2.33;;;9.60;99.90;;;;;;5007020;28;20052;-57
2022/01/03 06:24:17;;;;;;;5.22;1.27;;;9.60;99.90;;;;;;4990610;28;20053;-58
2022/01/03 06:26:45;;;;;;;7.18;1.75;;;9.60;99.90;;;;;;4990656;28;20050;-57
2022/01/03 06:29:14;;;;;;;9.13;1.90;;;9.60;99.90;;;;;;5017635;28;20775;-57
2022/01/03 06:31:42;;;;;;;4.38;1.25;;;9.60;99.90;;;;;;5008231;28;20051;-65
2022/01/03 06:34:10;;;;;;;7.47;1.60;;;9.50;99.90;;;;;;5009855;28;20054;-62
2022/01/03 06:36:36;;;;;;;;;;;9.50;99.90;;;;;;5011169;28;20434;-64
2022/01/03 06:39:06;;;;;;;9.52;1.27;;;9.50;99.90;;;;;;5025121;28;20003;-59
2022/01/03 06:41:33;;;;;;;8.50;1.95;;;9.50;99.90;;;;;;5006462;28;20034;-59
2022/01/03 06:44:00;;;;;;;2.75;1.15;;;9.50;99.90;;;;;;5005334;28;20050;-62
2022/01/03 06:46:28;;;;;;;12.05;2.05;;;9.40;99.90;;;;;;5005202;28;20054;-58
2022/01/03 06:48:55;;;;;;;6.65;1.65;;;9.40;99.90;;;;;;4991153;28;20510;-57
2022/01/03 06:51:25;;;;;;;11.75;2.92;;;9.40;99.90;;;;;;5006578;28;20112;-57
2022/01/03 06:53:52;;;;;;;4.40;1.85;;;9.40;99.90;;;;;;5015043;28;20058;-58
2022/01/03 06:56:19;;;;;;;7.22;1.65;;;9.40;99.90;;;;;;5024289;28;20447;-60
2022/01/03 06:58:47;;;;;;;7.45;2.53;;;9.40;99.90;;;;;;4990363;28;20056;-61
2022/01/03 07:01:14;;;;;;;7.43;1.48;;;9.30;99.90;;;;;;5003298;28;20053;-61
2022/01/03 07:03:41;;;;;;;5.85;1.88;;;9.30;99.90;;;;;;4985049;28;20046;-58
2022/01/03 07:06:08;;;;;;;6.63;1.40;;;9.30;99.90;;;;;;4982085;28;20084;-57
2022/01/03 07:08:34;;;;;;;6.50;1.70;;;9.30;99.90;;;;;;4984631;28;20088;-57
2022/01/03 07:11:01;;;;;;;4.95;1.45;;;9.30;99.90;;;;;;4986808;28;20045;-62
2022/01/03 07:13:30;;;;;;;;;;;9.40;99.90;;;;;;4986797;28;20775;-57
2022/01/03 07:18:59;;;;;;;7.90;1.15;;;9.40;99.90;;;;;;4986188;28;20680;-58
2022/01/03 07:21:28;;;;;;;5.63;1.13;;;9.40;99.90;;;;;;5001504;28;20060;-57
2022/01/03 07:23:57;;;;;;;5.55;1.52;;;9.40;99.90;;;;;;5000738;28;20102;-58
2022/01/03 07:26:27;;;;;;;7.15;1.65;;;9.40;99.90;;;;;;5005928;28;20042;-60
2022/01/03 07:28:55;;;;;;;9.43;1.50;;;9.40;99.90;;;;;;4995002;28;20049;-57
2022/01/03 07:31:22;;;;;;;7.57;1.65;;;9.40;99.90;;;;;;4985225;28;20053;-60
2022/01/03 07:33:49;;;;;;;11.57;2.17;;;9.40;99.90;;;;;;4988355;28;20046;-60
2022/01/03 07:36:16;;;;;;;;;;;9.40;99.90;;;;;;4987312;28;20057;-60
2022/01/03 07:38:46;;;;;;;9.73;2.00;;;9.40;99.90;;;;;;4987768;28;19925;-60
2022/01/03 07:41:16;;;;;;;6.22;1.65;;;9.40;99.90;;;;;;4986442;28;20049;-60
2022/01/03 07:43:44;;;;;;;5.60;1.75;;;9.50;99.90;;;;;;4987037;28;20046;-60
2022/01/03 07:46:11;;;;;;;11.60;2.33;;;9.50;99.90;;;;;;4985844;28;20046;-60
2022/01/03 07:48:41;;;;;;;8.05;2.55;;;9.50;99.90;;;;;;4987182;28;20408;-60
2022/01/03 07:51:08;;;;;;;12.45;2.42;;;9.50;99.90;;;;;;4986222;28;20041;-60
2022/01/03 07:53:35;;;;;;;7.75;1.55;;;9.50;99.90;;;;;;4993194;28;20132;-60
2022/01/03 07:56:04;;;;;;;;;;;9.50;99.90;;;;;;4988054;28;20073;-60
2022/01/03 07:58:32;;;;;;;5.50;1.58;;;9.60;99.90;;;;;;4986097;28;19925;-54
2022/01/03 08:00:59;;;;;;;6.07;1.58;;;9.60;99.90;;;;;;4985756;28;20119;-55
2022/01/03 08:03:26;;;;;;;18.52;1.98;;;9.60;99.90;;;;;;4986810;28;20046;-54
2022/01/03 08:06:09;;;;;;;6.50;1.20;;;9.70;99.90;;;;;;4986318;28;20120;-56
2022/01/03 08:08:37;;;;;;;13.02;2.35;;;9.70;99.90;;;;;;4985663;28;20046;-61
2022/01/03 08:11:04;;;;;;;5.80;1.40;;;9.70;99.90;;;;;;5001513;28;20108;-62
2022/01/03 08:13:32;;;;;;;7.45;1.85;;;9.70;99.90;;;;;;4974090;28;20100;-57
2022/01/03 08:15:59;;;;;;;4.68;1.52;;;9.70;99.90;;;;;;4966380;28;20101;-56
2022/01/03 08:18:26;;;;;;;6.40;1.48;;;9.70;99.90;;;;;;4967002;28;20050;-56
2022/01/03 08:20:53;;;;;;;9.63;1.60;;;9.70;99.90;;;;;;4966605;28;20061;-57
2022/01/03 08:23:20;;;;;;;6.30;1.25;;;9.70;99.90;;;;;;4965702;28;20042;-57
2022/01/03 08:25:47;;;;;;;9.45;1.48;;;9.80;99.90;;;;;;4968515;28;20356;-55
2022/01/03 08:28:14;;;;;;;;;;;9.70;99.90;;;;;;4971058;28;20077;-56
2022/01/03 08:30:41;;;;;;;9.20;2.15;;;9.70;99.90;;;;;;4975980;28;19932;-56
2022/01/03 08:33:08;;;;;;;8.40;1.30;;;9.70;99.90;;;;;;4976638;28;20054;-56
2022/01/03 08:35:35;;;;;;;;;;;9.70;99.90;;;;;;4976616;28;20579;-62
2022/01/03 08:38:04;;;;;;;7.88;1.80;;;9.70;99.90;;;;;;4976648;28;19925;-61
2022/01/03 08:40:31;;;;;;;9.20;2.05;;;9.70;99.90;;;;;;4975498;28;20050;-56
2022/01/03 08:42:59;;;;;;;8.10;2.05;;;9.80;99.90;;;;;;4978671;28;20043;-60
2022/01/03 08:45:26;;;;;;;11.15;2.72;;;9.80;99.90;;;;;;4979200;28;20088;-60
2022/01/03 08:47:53;;;;;;;7.00;1.50;;;9.80;99.90;;;;;;4978838;28;20642;-56
2022/01/03 08:50:20;;;;;;;7.35;1.60;;;9.80;99.90;;;;;;4978981;28;20093;-55
2022/01/03 08:52:48;;;;;;;5.57;1.73;;;9.90;99.90;;;;;;4979663;28;20058;-66
2022/01/03 08:55:16;;;;;;;10.68;2.25;;;9.90;99.90;;;;;;4999622;28;20100;-63
2022/01/03 08:57:44;;;;;;;4.18;1.00;;;9.90;99.90;;;;;;4998589;28;20057;-69
2022/01/03 09:00:11;;;;;;;6.78;1.55;;;9.90;99.90;;;;;;4998413;28;20077;-56
2022/01/03 09:02:38;;;;;;;16.38;1.98;;;9.90;99.90;;;;;;4998692;28;20045;-57
2022/01/03 09:05:05;;;;;;;;;;;9.90;99.90;;;;;;4999745;28;20416;-58
2022/01/03 09:07:32;;;;;;;4.88;1.38;;;9.90;99.90;;;;;;4998968;28;19975;-58
2022/01/03 09:09:58;;;;;;;;;;;10.00;99.90;;;;;;4999159;28;20173;-58
2022/01/03 09:12:25;;;;;;;10.57;1.52;;;10.00;99.90;;;;;;4999107;28;19975;-58
2022/01/03 09:14:53;;;;;;;;;;;9.90;99.90;;;;;;4998996;28;20748;-58
2022/01/03 09:17:20;;;;;;;7.20;1.30;;;9.90;99.90;;;;;;4991012;28;19926;-63
2022/01/03 09:19:47;;;;;;;9.15;2.22;;;10.00;99.90;;;;;;4977649;28;20120;-57
2022/01/03 09:22:22;;;;;;;9.43;1.55;;;10.00;99.90;;;;;;4979409;28;20069;-57
2022/01/03 09:28:49;;;;;;;9.15;2.30;;;10.00;99.90;;;;;;4979398;28;20031;-57
2022/01/03 09:30:30;;;;;;;6.18;1.80;;;10.10;99.90;;;;;;4978958;28;20096;-57
2022/01/03 09:32:57;;;;;;;5.72;1.23;;;10.10;99.90;;;;;;4978971;28;20084;-57
2022/01/03 09:35:24;;;;;;;;;;;10.10;99.90;;;;;;4979237;28;20121;-56
2022/01/03 09:37:51;;;;;;;3.42;1.20;;;10.10;99.90;;;;;;4979101;28;19922;-56
2022/01/03 09:40:18;;;;;;;9.43;2.20;;;10.10;99.90;;;;;;4978644;28;20054;-57
2022/01/03 09:42:50;;;;;;;3.80;2.25;;;10.10;99.90;;;;;;4977989;28;20784;-56
2022/01/03 09:45:16;;;;;;;8.23;1.65;;;10.20;99.90;;;;;;4979269;28;20046;-56
2022/01/03 09:47:45;;;;;;;8.98;1.98;;;10.20;99.90;;;;;;4978972;28;20049;-57
2022/01/03 09:50:17;;;;;;;5.80;1.10;;;10.20;99.90;;;;;;4977821;28;20069;-58
2022/01/03 09:52:47;;;;;;;6.07;1.33;;;10.30;99.90;;;;;;4981064;28;20046;-58
2022/01/03 09:55:21;;;;;;;5.22;1.15;;;10.30;99.90;;;;;;4978024;28;20054;-58
2022/01/03 09:57:49;;;;;;;4.20;0.98;;;10.30;99.90;;;;;;4978465;28;20058;-58
2022/01/03 10:00:23;;;;;;;4.25;1.65;;;10.30;99.90;;;;;;4977910;28;20054;-57
2022/01/03 10:02:51;;;;;;;8.07;1.17;;;10.40;99.90;;;;;;4978287;28;20697;-58
2022/01/03 10:05:19;;;;;;;5.32;1.42;;;10.40;99.60;;;;;;4977679;28;20054;-57
2022/01/03 10:07:47;;;;;;;4.80;1.17;;;10.40;99.30;;;;;;4978792;28;20046;-58
2022/01/03 10:10:14;;;;;;;5.80;1.30;;;10.40;99.40;;;;;;4977324;28;20053;-57
2022/01/03 10:12:41;;;;;;;5.72;1.45;;;10.40;99.40;;;;;;4977773;28;20042;-57
2022/01/03 10:15:09;;;;;;;7.30;1.65;;;10.40;98.80;;;;;;4978161;28;20062;-57
2022/01/03 10:17:41;;;;;;;3.80;0.98;;;10.50;98.80;;;;;;4977728;28;20050;-57
2022/01/03 10:20:12;;;;;;;9.13;1.30;;;10.50;98.20;;;;;;4977593;28;20827;-58
2022/01/03 10:22:41;;;;;;;5.13;1.52;;;10.50;98.70;;;;;;4978169;28;20706;-57
2022/01/03 10:25:19;;;;;;;4.50;1.23;;;10.50;99.00;;;;;;4977650;28;20046;-58
2022/01/03 10:27:59;;;;;;;7.15;1.25;;;10.50;99.10;;;;;;4977882;28;20050;-57
2022/01/03 10:30:34;;;;;;;4.85;1.25;;;10.50;99.40;;;;;;4977806;28;20054;-57
2022/01/03 10:33:04;;;;;;;7.65;1.38;;;10.40;99.40;;;;;;4977784;28;20050;-57
2022/01/03 10:35:39;;;;;;;5.20;1.02;;;10.40;99.40;;;;;;4977117;28;20035;-57
2022/01/03 10:38:08;;;;;;;8.10;1.35;;;10.30;99.30;;;;;;4978101;28;20042;-57
2022/01/03 10:40:37;;;;;;;5.47;1.45;;;10.30;99.10;;;;;;4976865;28;20049;-57
2022/01/03 10:43:16;;;;;;;3.20;1.70;;;10.30;99.20;;;;;;4977640;28;20042;-58
2022/01/03 10:45:43;;;;;;;6.32;1.25;;;10.30;99.00;;;;;;4977294;28;20301;-57
2022/01/03 10:48:30;;;;;;;3.95;1.17;;;10.30;99.20;;;;;;4977847;28;20038;-57
2022/01/03 10:50:58;;;;;;;5.10;1.02;;;10.30;98.30;;;;;;4976673;28;20094;-57
2022/01/03 10:53:36;;;;;;;7.25;1.13;;;10.30;97.60;;;;;;4980722;28;20064;-57
2022/01/03 10:56:28;;;;;;;3.97;1.13;;;10.40;97.40;;;;;;4977254;28;20108;-57
2022/01/03 10:59:22;;;;;;;3.22;0.98;;;10.40;96.30;;;;;;4976858;28;21003;-57
2022/01/03 11:01:52;;;;;;;2.15;0.55;;;10.40;94.80;;;;;;4978076;28;20061;-57
2022/01/03 11:04:36;;;;;;;6.40;0.70;;;10.40;94.00;;;;;;4976112;28;20576;-57
2022/01/03 11:13:20;;;;;;;2.95;0.60;;;10.50;92.60;;;;;;4977340;28;20396;-58
2022/01/03 11:15:58;;;;;;;3.93;1.33;;;10.50;91.60;;;;;;4977300;28;20050;-58
2022/01/03 11:18:27;;;;;;;2.15;0.50;;;10.50;91.00;;;;;;4977475;28;20057;-58
2022/01/03 11:21:14;;;;;;;5.70;0.98;;;10.50;91.50;;;;;;4976060;28;20466;-58
2022/01/03 11:24:01;;;;;;;4.38;1.10;;;10.60;91.60;;;;;;4977141;28;20061;-58
2022/01/03 11:26:30;;;;;;;1.50;0.43;;;10.60;91.70;;;;;;4976480;28;20742;-58
2022/01/03 11:28:57;;;;;;;7.90;1.10;;;10.50;91.50;;;;;;4976787;28;20046;-58
2022/01/03 11:31:24;;;;;;;3.08;1.15;;;10.50;92.50;;;;;;4976707;28;20053;-58
2022/01/03 11:33:52;;;;;;;;;;;10.50;92.70;;;;;;4977236;28;20767;-58
2022/01/03 11:36:40;;;;;;;3.22;0.75;;;10.50;93.00;;;;;;4977113;28;20457;-58
2022/01/03 11:39:09;;;;;;;1.00;0.70;;;10.50;92.70;;;;;;4975831;28;20050;-58
2022/01/03 11:41:39;;;;;;;1.55;0.60;;;10.50;92.50;;;;;;4976965;28;20579;-58
2022/01/03 11:44:10;;;;;;;3.22;0.70;;;10.50;92.90;;;;;;4976336;28;20093;-58
2022/01/03 11:46:37;;;;;;;5.55;1.00;;;10.50;92.30;;;;;;4977039;28;20042;-58
2022/01/03 11:49:05;;;;;;;5.72;0.77;;;10.50;91.70;;;;;;4976078;28;20038;-58
2022/01/03 11:51:33;;;;;;;2.00;0.43;;;10.40;91.30;;;;;;4975359;28;20042;-58
2022/01/03 11:54:07;;;;;;;1.15;0.40;;;10.50;89.80;;;;;;4982368;28;20448;-58
2022/01/03 11:56:40;;;;;;;4.03;0.85;;;10.50;90.00;;;;;;4976449;28;20046;-58
2022/01/03 12:05:01;;;;;;;2.60;0.70;;;10.60;85.20;;;;;;4975906;28;20441;-57
2022/01/03 12:07:28;;;;;;;1.75;1.15;;;10.70;82.40;;;;;;4976233;28;20038;-58
2022/01/03 12:10:06;;;;;;;;;;;10.70;82.40;;;;;;4976499;28;20046;-58
2022/01/03 12:12:38;;;;;;;5.18;0.88;;;10.80;83.70;;;;;;4976085;28;19921;-58
2022/01/03 12:15:26;;;;;;;5.97;1.33;;;10.80;84.80;;;;;;4976697;28;20053;-58
2022/01/03 12:17:53;;;;;;;2.28;0.60;;;10.80;83.40;;;;;;4980287;28;20058;-58
2022/01/03 12:20:20;;;;;;;1.73;0.60;;;10.80;84.20;;;;;;4979761;28;20463;-59
2022/01/03 12:22:52;;;;;;;2.05;0.70;;;10.90;83.90;;;;;;4980225;28;20042;-58
2022/01/03 12:25:27;;;;;;;3.75;0.60;;;10.90;83.90;;;;;;4978561;28;20066;-58
2022/01/03 12:27:56;;;;;;;4.53;0.55;;;10.90;83.70;;;;;;4980287;28;20039;-58
2022/01/03 12:30:28;;;;;;;5.10;0.80;;;10.90;83.60;;;;;;4978131;28;20054;-58
2022/01/03 12:33:07;;;;;;;2.03;0.70;;;10.90;85.10;;;;;;4980003;28;20628;-58
2022/01/03 12:35:36;;;;;;;2.58;0.70;;;10.90;84.20;;;;;;4979605;28;20104;-58
2022/01/03 12:38:04;;;;;;;2.22;0.75;;;11.00;83.70;;;;;;4980099;28;20042;-58
2022/01/03 12:40:35;;;;;;;;;;;11.00;82.20;;;;;;4979623;28;20124;-58
2022/01/03 12:43:05;;;;;;;1.98;0.80;;;11.00;82.50;;;;;;4980330;28;19933;-58
2022/01/03 12:45:32;;;;;;;2.50;0.70;;;11.00;83.40;;;;;;4979520;28;20093;-58
2022/01/03 12:48:11;;;;;;;3.10;0.90;;;11.00;84.20;;;;;;4979996;28;20049;-58
2022/01/03 12:50:53;;;;;;;5.70;0.93;;;11.00;84.80;;;;;;4979439;28;20054;-58
2022/01/03 12:53:26;;;;;;;6.43;1.08;;;11.00;81.80;;;;;;4982403;28;20121;-59
2022/01/03 12:56:12;;;;;;;4.13;0.70;;;11.00;84.00;;;;;;4979706;28;20120;-58
2022/01/03 12:59:07;;;;;;;3.20;1.08;;;11.00;83.50;;;;;;4979800;28;20053;-58
2022/01/03 13:01:35;;;;;;;3.75;1.02;;;11.00;84.60;;;;;;4979442;28;20050;-59
2022/01/03 13:04:19;;;;;;;4.20;0.90;;;11.00;85.20;;;;;;4978350;28;20046;-59
2022/01/03 13:06:47;;;;;;;2.83;1.00;;;11.10;85.70;;;;;;4979889;28;20042;-59
2022/01/03 13:09:14;;;;;;;4.50;0.90;;;11.10;86.20;;;;;;4978100;28;20117;-59
2022/01/03 13:11:46;;;;;;;3.63;1.02;;;11.10;86.30;;;;;;4978967;28;20050;-58
2022/01/03 13:14:21;;;;;;;2.95;0.90;;;11.10;87.10;;;;;;4978749;28;20124;-57
2022/01/03 13:16:58;;;;;;;5.00;1.38;;;11.10;86.80;;;;;;4979421;28;20057;-57
2022/01/03 13:19:30;;;;;;;6.80;1.30;;;11.10;87.00;;;;;;4978283;28;20468;-56
2022/01/03 13:22:00;;;;;;;1.95;1.02;;;11.10;88.20;;;;;;4979338;28;20049;-65
2022/01/03 13:24:33;;;;;;;3.58;1.10;;;11.10;86.40;;;;;;4979033;28;20038;-59
2022/01/03 13:27:13;;;;;;;7.32;1.33;;;11.10;86.10;;;;;;4978630;28;20120;-59
2022/01/03 13:29:46;;;;;;;4.05;1.25;;;11.20;85.30;;;;;;4978811;28;20038;-59
2022/01/03 13:32:24;;;;;;;2.08;1.10;;;11.20;85.20;;;;;;4976839;28;20644;-58
2022/01/03 13:34:53;;;;;;;2.45;0.70;;;11.20;85.20;;;;;;4979400;28;20137;-61